Flight Track Log - Related Links

Times and Time Zones

All times are in EDT time to prevent confusion due to time zone crossing. See the N373LD flight status page for this flight to view local times or setup timezone preferences in your user account.

Time Position Orientation Groundspeed Altitude Reporting Facility
EDT Latitude Longitude Course Direction KTS MPH feet Rate Location/Type
Mon 02:13:49 PM 44.5425 -109.0014 48° Northeast 137 158 6,300  Level Salt Lake Center
Mon 02:14:50 PM 44.5817 -108.9839 18° North 144 166 7,900 1,512 Climbing Salt Lake Center
Mon 02:15:52 PM 44.6222 -108.9672 16° North 145 167 9,400 1,645 Climbing Salt Lake Center
Mon 02:16:00 PM 44.7562 -108.6399 50° Northeast  Level FlightAware Approximate
Mon 02:16:54 PM 44.6578 -108.9058 51° Northeast 161 185 11,300  Level Salt Lake Center
Mon 02:17:00 PM 44.7948 -108.5753 50° Northeast  Level FlightAware Approximate
Mon 02:17:56 PM 44.6892 -108.8556 49° Northeast 167 192 12,800  Level Salt Lake Center
Mon 02:18:00 PM 44.8397 -108.5206 55° Northeast  Level FlightAware Approximate
Mon 02:18:58 PM 44.7206 -108.8042 49° Northeast 168 193 14,300  Level Salt Lake Center
Mon 02:19:00 PM 44.8755 -108.4530 48° Northeast  Level FlightAware Approximate
Mon 02:20:00 PM 44.7539 -108.7514 48° Northeast 174 200 15,800  Level Salt Lake Center
Mon 02:21:02 PM 44.7875 -108.6953 50° Northeast 183 211 17,400 1,366 Climbing Salt Lake Center
Mon 02:22:03 PM 44.8225 -108.6386 49° Northeast 185 213 18,600 1,268 Climbing Salt Lake Center
Mon 02:23:05 PM 44.8572 -108.5808 50° Northeast 190 219 20,000 1,113 Climbing Salt Lake Center
Mon 02:24:07 PM 44.9028 -108.5069 49° Northeast 204 235 20,900 484 Climbing Salt Lake Center
Mon 02:25:09 PM 44.9469 -108.4350 49° Northeast 231 266 21,000 48 Climbing Salt Lake Center
Mon 02:26:11 PM 44.9939 -108.3558 50° Northeast 253 291 21,000  Level Salt Lake Center
Mon 02:27:12 PM 45.0417 -108.2772 49° Northeast 257 296 21,000  Level Salt Lake Center
Mon 02:28:14 PM 45.0886 -108.1992 50° Northeast 258 297 21,000  Level Salt Lake Center
Mon 02:29:16 PM 45.1344 -108.1197 51° Northeast 258 297 21,000  Level Salt Lake Center
Mon 02:30:18 PM 45.1792 -108.0381 52° Northeast 259 298 21,000  Level Salt Lake Center
Mon 02:31:20 PM 45.2208 -107.9525 55° Northeast 260 299 21,000  Level Salt Lake Center
Mon 02:32:21 PM 45.2706 -107.8514 55° Northeast 260 299 21,000  Level Salt Lake Center
Mon 02:33:23 PM 45.3128 -107.7664 55° Northeast 260 299 21,000  Level Salt Lake Center
Mon 02:34:25 PM 45.3542 -107.6811 55° Northeast 262 302 21,000  Level Salt Lake Center
Mon 02:35:27 PM 45.3961 -107.5936 56° Northeast 265 305 21,000  Level Salt Lake Center
Mon 02:36:29 PM 45.4383 -107.5078 55° Northeast 265 305 21,000  Level Salt Lake Center
Mon 02:37:30 PM 45.4803 -107.4219 55° Northeast 265 305 21,000  Level Salt Lake Center
Mon 02:38:32 PM 45.5217 -107.3383 55° Northeast 263 303 21,000  Level Salt Lake Center
Mon 02:39:34 PM 45.5711 -107.2369 55° Northeast 260 299 21,000  Level Salt Lake Center
Mon 02:40:36 PM 45.6122 -107.1503 56° Northeast 261 300 21,000  Level Salt Lake Center
Mon 02:41:37 PM 45.6536 -107.0625 56° Northeast 264 304 21,000  Level Salt Lake Center
Mon 02:42:39 PM 45.6936 -106.9764 56° Northeast 264 304 21,000  Level Salt Lake Center
Mon 02:43:41 PM 45.7347 -106.8908 55° Northeast 264 304 21,000  Level Salt Lake Center
Mon 02:44:43 PM 45.7767 -106.8044 55° Northeast 264 304 21,000  Level Salt Lake Center
Mon 02:45:45 PM 45.8172 -106.7175 56° Northeast 264 304 21,000  Level Salt Lake Center
Mon 02:46:46 PM 45.8664 -106.6150 55° Northeast 264 304 21,000  Level Salt Lake Center
Mon 02:47:48 PM 45.9067 -106.5297 56° Northeast 263 303 21,000  Level Salt Lake Center
Mon 02:48:50 PM 45.9469 -106.4422 56° Northeast 263 303 21,000  Level Salt Lake Center
Mon 02:49:52 PM 45.9875 -106.3558 56° Northeast 263 303 21,000 -581 Level Salt Lake Center
Mon 02:50:54 PM 46.0269 -106.2692 57° Northeast 263 303 19,800 -1,415 Descending Salt Lake Center
Mon 02:51:55 PM 46.0661 -106.1856 56° Northeast 259 298 18,100 -1,512 Descending Salt Lake Center
Mon 02:52:57 PM 46.1025 -106.1056 57° Northeast 250 288 16,700 -1,694 Descending Salt Lake Center
Mon 02:53:59 PM 46.1475 -106.0136 55° Northeast 242 278 14,600 -1,984 Descending Salt Lake Center
Mon 02:55:01 PM 46.2033 -106.0275 350° North 226 260 12,600 -2,000 Descending Salt Lake Center
Mon 02:56:02 PM 46.2542 -106.0731 328° Northwest 218 251 10,500 -2,049 Descending Salt Lake Center
Mon 02:57:04 PM 46.3022 -106.0972 341° North 209 241 8,400 -1,258 Descending Salt Lake Center
Mon 02:58:06 PM 46.3489 -106.0636 26° Northeast 207 238 7,900 -484 Descending Salt Lake Center

Login

Don't have an account? Register now (free) for customized features, flight alerts, and more!